sensor_id;sensor_type;location;lat;lon;timestamp;P1;durP1;ratioP1;P2;durP2;ratioP2
42132;SDS011;70517;48.192;16.278;2023-06-14T00:02:25;2.40;;;1.65;;
42132;SDS011;70517;48.192;16.278;2023-06-14T00:05:25;2.33;;;1.57;;
42132;SDS011;70517;48.192;16.278;2023-06-14T00:08:26;1.60;;;1.50;;
42132;SDS011;70517;48.192;16.278;2023-06-14T00:11:26;2.10;;;1.60;;
42132;SDS011;70517;48.192;16.278;2023-06-14T00:14:26;2.67;;;1.67;;
42132;SDS011;70517;48.192;16.278;2023-06-14T00:17:27;2.90;;;1.80;;
42132;SDS011;70517;48.192;16.278;2023-06-14T00:20:30;2.03;;;1.70;;
42132;SDS011;70517;48.192;16.278;2023-06-14T00:23:32;1.70;;;1.55;;
42132;SDS011;70517;48.192;16.278;2023-06-14T00:26:32;3.17;;;1.53;;
42132;SDS011;70517;48.192;16.278;2023-06-14T00:29:33;3.10;;;1.70;;
42132;SDS011;70517;48.192;16.278;2023-06-14T00:32:33;2.50;;;1.60;;
42132;SDS011;70517;48.192;16.278;2023-06-14T00:35:33;1.83;;;1.53;;
42132;SDS011;70517;48.192;16.278;2023-06-14T00:38:33;1.70;;;1.57;;
42132;SDS011;70517;48.192;16.278;2023-06-14T00:41:34;1.90;;;1.50;;
42132;SDS011;70517;48.192;16.278;2023-06-14T00:44:34;2.53;;;1.30;;
42132;SDS011;70517;48.192;16.278;2023-06-14T00:47:35;1.93;;;1.37;;
42132;SDS011;70517;48.192;16.278;2023-06-14T00:50:36;3.17;;;1.65;;
42132;SDS011;70517;48.192;16.278;2023-06-14T00:53:38;2.10;;;1.70;;
42132;SDS011;70517;48.192;16.278;2023-06-14T00:56:39;3.20;;;1.60;;
42132;SDS011;70517;48.192;16.278;2023-06-14T00:59:42;1.60;;;1.50;;
42132;SDS011;70517;48.192;16.278;2023-06-14T01:02:42;3.30;;;1.58;;
42132;SDS011;70517;48.192;16.278;2023-06-14T01:05:43;2.03;;;1.40;;
42132;SDS011;70517;48.192;16.278;2023-06-14T01:08:47;1.58;;;1.48;;
42132;SDS011;70517;48.192;16.278;2023-06-14T01:15:21;2.10;;;1.65;;
42132;SDS011;70517;48.192;16.278;2023-06-14T01:18:23;3.03;;;1.77;;
42132;SDS011;70517;48.192;16.278;2023-06-14T01:21:26;2.25;;;1.83;;
42132;SDS011;70517;48.192;16.278;2023-06-14T01:24:28;1.92;;;1.58;;
42132;SDS011;70517;48.192;16.278;2023-06-14T01:27:31;2.22;;;1.40;;
42132;SDS011;70517;48.192;16.278;2023-06-14T01:30:32;2.25;;;1.80;;
42132;SDS011;70517;48.192;16.278;2023-06-14T01:33:34;2.05;;;1.52;;
42132;SDS011;70517;48.192;16.278;2023-06-14T01:36:35;1.33;;;1.23;;
42132;SDS011;70517;48.192;16.278;2023-06-14T01:39:36;2.15;;;1.50;;
42132;SDS011;70517;48.192;16.278;2023-06-14T01:42:37;2.03;;;1.58;;
42132;SDS011;70517;48.192;16.278;2023-06-14T01:45:38;2.45;;;1.35;;
42132;SDS011;70517;48.192;16.278;2023-06-14T01:48:40;1.70;;;1.35;;
42132;SDS011;70517;48.192;16.278;2023-06-14T01:51:40;2.20;;;1.40;;
42132;SDS011;70517;48.192;16.278;2023-06-14T01:54:40;2.90;;;1.40;;
42132;SDS011;70517;48.192;16.278;2023-06-14T01:57:41;2.08;;;1.60;;
42132;SDS011;70517;48.192;16.278;2023-06-14T02:00:42;1.47;;;1.30;;
42132;SDS011;70517;48.192;16.278;2023-06-14T02:03:43;1.70;;;1.40;;
42132;SDS011;70517;48.192;16.278;2023-06-14T02:06:44;2.47;;;1.58;;
42132;SDS011;70517;48.192;16.278;2023-06-14T02:09:45;2.57;;;1.80;;
42132;SDS011;70517;48.192;16.278;2023-06-14T02:12:45;2.70;;;1.67;;
42132;SDS011;70517;48.192;16.278;2023-06-14T02:15:45;1.87;;;1.60;;
42132;SDS011;70517;48.192;16.278;2023-06-14T02:18:46;2.42;;;1.65;;
42132;SDS011;70517;48.192;16.278;2023-06-14T02:21:47;2.30;;;1.57;;
42132;SDS011;70517;48.192;16.278;2023-06-14T02:24:47;2.10;;;1.63;;
42132;SDS011;70517;48.192;16.278;2023-06-14T02:27:47;1.90;;;1.50;;
42132;SDS011;70517;48.192;16.278;2023-06-14T02:30:47;3.70;;;1.67;;
42132;SDS011;70517;48.192;16.278;2023-06-14T02:33:48;2.13;;;1.73;;
42132;SDS011;70517;48.192;16.278;2023-06-14T02:36:48;1.87;;;1.60;;
42132;SDS011;70517;48.192;16.278;2023-06-14T02:39:49;1.88;;;1.63;;
42132;SDS011;70517;48.192;16.278;2023-06-14T02:42:50;1.47;;;1.33;;
42132;SDS011;70517;48.192;16.278;2023-06-14T02:45:50;1.80;;;1.50;;
42132;SDS011;70517;48.192;16.278;2023-06-14T02:48:50;1.67;;;1.57;;
42132;SDS011;70517;48.192;16.278;2023-06-14T02:51:50;1.90;;;1.70;;
42132;SDS011;70517;48.192;16.278;2023-06-14T02:54:51;2.60;;;1.57;;
42132;SDS011;70517;48.192;16.278;2023-06-14T02:57:51;2.43;;;1.57;;
42132;SDS011;70517;48.192;16.278;2023-06-14T03:00:53;1.80;;;1.58;;
42132;SDS011;70517;48.192;16.278;2023-06-14T03:03:53;1.73;;;1.47;;
42132;SDS011;70517;48.192;16.278;2023-06-14T03:06:54;2.43;;;1.90;;
42132;SDS011;70517;48.192;16.278;2023-06-14T03:09:54;2.10;;;1.70;;
42132;SDS011;70517;48.192;16.278;2023-06-14T03:12:54;1.97;;;1.43;;
42132;SDS011;70517;48.192;16.278;2023-06-14T03:15:55;2.47;;;1.63;;
42132;SDS011;70517;48.192;16.278;2023-06-14T03:18:56;1.77;;;1.55;;
42132;SDS011;70517;48.192;16.278;2023-06-14T03:21:56;2.03;;;1.63;;
42132;SDS011;70517;48.192;16.278;2023-06-14T03:24:59;1.63;;;1.45;;
42132;SDS011;70517;48.192;16.278;2023-06-14T03:28:00;2.15;;;1.63;;
42132;SDS011;70517;48.192;16.278;2023-06-14T03:31:00;2.57;;;1.70;;
42132;SDS011;70517;48.192;16.278;2023-06-14T03:34:01;2.10;;;1.55;;
42132;SDS011;70517;48.192;16.278;2023-06-14T03:37:02;1.70;;;1.60;;
42132;SDS011;70517;48.192;16.278;2023-06-14T03:40:02;2.60;;;1.50;;
42132;SDS011;70517;48.192;16.278;2023-06-14T03:43:06;2.13;;;1.65;;
42132;SDS011;70517;48.192;16.278;2023-06-14T03:46:06;2.10;;;1.60;;
42132;SDS011;70517;48.192;16.278;2023-06-14T03:49:06;1.93;;;1.73;;
42132;SDS011;70517;48.192;16.278;2023-06-14T03:52:07;2.58;;;1.83;;
42132;SDS011;70517;48.192;16.278;2023-06-14T03:55:07;1.87;;;1.30;;
42132;SDS011;70517;48.192;16.278;2023-06-14T03:58:08;2.10;;;1.90;;
42132;SDS011;70517;48.192;16.278;2023-06-14T04:01:08;2.30;;;1.53;;
42132;SDS011;70517;48.192;16.278;2023-06-14T04:04:08;1.93;;;1.37;;
42132;SDS011;70517;48.192;16.278;2023-06-14T04:07:08;2.83;;;1.90;;
42132;SDS011;70517;48.192;16.278;2023-06-14T04:10:08;3.37;;;1.80;;
42132;SDS011;70517;48.192;16.278;2023-06-14T04:13:09;2.30;;;1.73;;
42132;SDS011;70517;48.192;16.278;2023-06-14T04:16:12;3.72;;;2.03;;
42132;SDS011;70517;48.192;16.278;2023-06-14T04:19:13;2.67;;;1.92;;
42132;SDS011;70517;48.192;16.278;2023-06-14T04:22:13;2.43;;;1.90;;
42132;SDS011;70517;48.192;16.278;2023-06-14T04:25:13;3.00;;;1.93;;
42132;SDS011;70517;48.192;16.278;2023-06-14T04:31:18;2.05;;;1.55;;
42132;SDS011;70517;48.192;16.278;2023-06-14T04:34:19;2.50;;;2.05;;
42132;SDS011;70517;48.192;16.278;2023-06-14T04:37:19;3.17;;;1.53;;
42132;SDS011;70517;48.192;16.278;2023-06-14T04:40:21;2.08;;;1.55;;
42132;SDS011;70517;48.192;16.278;2023-06-14T04:43:21;3.73;;;1.97;;
42132;SDS011;70517;48.192;16.278;2023-06-14T04:46:24;5.70;;;1.92;;
42132;SDS011;70517;48.192;16.278;2023-06-14T04:49:25;2.80;;;2.20;;
42132;SDS011;70517;48.192;16.278;2023-06-14T04:52:27;4.13;;;1.67;;
42132;SDS011;70517;48.192;16.278;2023-06-14T04:55:29;4.80;;;2.20;;
42132;SDS011;70517;48.192;16.278;2023-06-14T04:58:30;3.93;;;2.00;;
42132;SDS011;70517;48.192;16.278;2023-06-14T05:01:30;4.80;;;1.85;;
42132;SDS011;70517;48.192;16.278;2023-06-14T05:07:32;3.47;;;1.80;;
42132;SDS011;70517;48.192;16.278;2023-06-14T05:10:33;4.20;;;2.13;;
42132;SDS011;70517;48.192;16.278;2023-06-14T05:13:35;3.83;;;2.03;;
42132;SDS011;70517;48.192;16.278;2023-06-14T05:16:35;3.53;;;2.08;;
42132;SDS011;70517;48.192;16.278;2023-06-14T05:19:36;3.30;;;2.30;;
42132;SDS011;70517;48.192;16.278;2023-06-14T05:22:36;2.92;;;2.20;;
42132;SDS011;70517;48.192;16.278;2023-06-14T05:25:36;3.37;;;1.97;;
42132;SDS011;70517;48.192;16.278;2023-06-14T05:28:37;3.47;;;2.15;;
42132;SDS011;70517;48.192;16.278;2023-06-14T05:31:37;3.77;;;2.00;;
42132;SDS011;70517;48.192;16.278;2023-06-14T05:34:37;3.50;;;2.20;;
42132;SDS011;70517;48.192;16.278;2023-06-14T05:37:38;4.27;;;1.97;;
42132;SDS011;70517;48.192;16.278;2023-06-14T05:40:38;3.53;;;2.00;;
42132;SDS011;70517;48.192;16.278;2023-06-14T05:43:38;2.13;;;1.83;;
42132;SDS011;70517;48.192;16.278;2023-06-14T05:46:38;2.13;;;1.73;;
42132;SDS011;70517;48.192;16.278;2023-06-14T05:49:40;1.80;;;1.60;;
42132;SDS011;70517;48.192;16.278;2023-06-14T05:52:40;2.73;;;2.17;;
42132;SDS011;70517;48.192;16.278;2023-06-14T05:55:40;5.67;;;2.20;;
42132;SDS011;70517;48.192;16.278;2023-06-14T06:01:40;2.03;;;1.83;;
42132;SDS011;70517;48.192;16.278;2023-06-14T06:07:41;2.80;;;1.65;;
42132;SDS011;70517;48.192;16.278;2023-06-14T06:13:41;1.67;;;1.42;;
42132;SDS011;70517;48.192;16.278;2023-06-14T06:19:42;3.00;;;1.88;;
42132;SDS011;70517;48.192;16.278;2023-06-14T06:25:42;2.10;;;1.63;;
42132;SDS011;70517;48.192;16.278;2023-06-14T06:31:43;2.03;;;1.63;;
42132;SDS011;70517;48.192;16.278;2023-06-14T06:37:43;2.15;;;1.58;;
42132;SDS011;70517;48.192;16.278;2023-06-14T06:43:44;1.92;;;1.60;;
42132;SDS011;70517;48.192;16.278;2023-06-14T06:49:44;2.72;;;1.95;;
42132;SDS011;70517;48.192;16.278;2023-06-14T06:55:45;1.65;;;1.55;;
42132;SDS011;70517;48.192;16.278;2023-06-14T07:01:45;2.22;;;1.75;;
42132;SDS011;70517;48.192;16.278;2023-06-14T07:07:46;2.45;;;1.88;;
42132;SDS011;70517;48.192;16.278;2023-06-14T07:13:47;3.33;;;1.73;;
42132;SDS011;70517;48.192;16.278;2023-06-14T07:19:47;1.70;;;1.55;;
42132;SDS011;70517;48.192;16.278;2023-06-14T07:22:47;2.63;;;2.00;;
42132;SDS011;70517;48.192;16.278;2023-06-14T07:25:48;2.57;;;2.00;;
42132;SDS011;70517;48.192;16.278;2023-06-14T07:28:48;1.73;;;1.63;;
42132;SDS011;70517;48.192;16.278;2023-06-14T07:31:49;3.20;;;1.95;;
42132;SDS011;70517;48.192;16.278;2023-06-14T07:34:49;1.60;;;1.50;;
42132;SDS011;70517;48.192;16.278;2023-06-14T07:37:49;2.45;;;1.75;;
42132;SDS011;70517;48.192;16.278;2023-06-14T07:40:49;3.43;;;1.90;;
42132;SDS011;70517;48.192;16.278;2023-06-14T07:43:50;4.10;;;1.80;;
42132;SDS011;70517;48.192;16.278;2023-06-14T07:46:50;2.00;;;1.53;;
42132;SDS011;70517;48.192;16.278;2023-06-14T07:49:50;1.92;;;1.77;;
42132;SDS011;70517;48.192;16.278;2023-06-14T07:52:50;2.20;;;1.70;;
42132;SDS011;70517;48.192;16.278;2023-06-14T07:55:51;3.57;;;1.80;;
42132;SDS011;70517;48.192;16.278;2023-06-14T07:58:51;2.08;;;1.80;;
42132;SDS011;70517;48.192;16.278;2023-06-14T08:01:51;2.17;;;1.80;;
42132;SDS011;70517;48.192;16.278;2023-06-14T08:04:52;2.83;;;1.80;;
42132;SDS011;70517;48.192;16.278;2023-06-14T08:07:52;2.25;;;2.00;;
42132;SDS011;70517;48.192;16.278;2023-06-14T08:10:52;3.55;;;1.67;;
42132;SDS011;70517;48.192;16.278;2023-06-14T08:13:53;1.93;;;1.70;;
42132;SDS011;70517;48.192;16.278;2023-06-14T08:16:53;2.10;;;1.70;;
42132;SDS011;70517;48.192;16.278;2023-06-14T08:19:53;2.55;;;1.95;;
42132;SDS011;70517;48.192;16.278;2023-06-14T08:22:57;2.10;;;1.65;;
42132;SDS011;70517;48.192;16.278;2023-06-14T08:25:58;1.92;;;1.75;;
42132;SDS011;70517;48.192;16.278;2023-06-14T08:28:58;3.63;;;1.85;;
42132;SDS011;70517;48.192;16.278;2023-06-14T08:31:58;2.47;;;1.77;;
42132;SDS011;70517;48.192;16.278;2023-06-14T08:34:58;2.77;;;1.90;;
42132;SDS011;70517;48.192;16.278;2023-06-14T08:37:59;2.00;;;1.80;;
42132;SDS011;70517;48.192;16.278;2023-06-14T08:40:59;2.28;;;2.08;;
42132;SDS011;70517;48.192;16.278;2023-06-14T08:44:00;3.35;;;2.10;;
42132;SDS011;70517;48.192;16.278;2023-06-14T08:47:01;2.45;;;1.83;;
42132;SDS011;70517;48.192;16.278;2023-06-14T08:50:03;2.15;;;1.75;;
42132;SDS011;70517;48.192;16.278;2023-06-14T08:53:04;2.30;;;1.60;;
42132;SDS011;70517;48.192;16.278;2023-06-14T08:56:05;3.80;;;1.88;;
42132;SDS011;70517;48.192;16.278;2023-06-14T08:59:07;2.70;;;1.70;;
42132;SDS011;70517;48.192;16.278;2023-06-14T09:02:08;2.17;;;1.92;;
42132;SDS011;70517;48.192;16.278;2023-06-14T09:05:13;2.80;;;2.13;;
42132;SDS011;70517;48.192;16.278;2023-06-14T09:08:13;3.03;;;2.10;;
42132;SDS011;70517;48.192;16.278;2023-06-14T09:11:14;2.50;;;2.10;;
42132;SDS011;70517;48.192;16.278;2023-06-14T09:14:15;1.85;;;1.70;;
42132;SDS011;70517;48.192;16.278;2023-06-14T09:17:15;4.03;;;2.10;;
42132;SDS011;70517;48.192;16.278;2023-06-14T09:20:15;2.37;;;2.03;;
42132;SDS011;70517;48.192;16.278;2023-06-14T09:23:21;6.90;;;2.00;;
42132;SDS011;70517;48.192;16.278;2023-06-14T09:26:22;2.53;;;2.00;;
42132;SDS011;70517;48.192;16.278;2023-06-14T09:29:23;2.17;;;1.55;;
42132;SDS011;70517;48.192;16.278;2023-06-14T09:32:23;2.53;;;1.70;;
42132;SDS011;70517;48.192;16.278;2023-06-14T09:35:24;3.35;;;2.15;;
42132;SDS011;70517;48.192;16.278;2023-06-14T09:38:25;2.08;;;1.70;;
42132;SDS011;70517;48.192;16.278;2023-06-14T09:41:32;4.03;;;1.63;;
42132;SDS011;70517;48.192;16.278;2023-06-14T09:44:33;2.15;;;1.95;;
42132;SDS011;70517;48.192;16.278;2023-06-14T09:47:33;4.50;;;1.87;;
42132;SDS011;70517;48.192;16.278;2023-06-14T09:50:34;2.47;;;2.10;;
42132;SDS011;70517;48.192;16.278;2023-06-14T09:53:34;1.98;;;1.77;;
42132;SDS011;70517;48.192;16.278;2023-06-14T09:56:41;2.53;;;1.95;;
42132;SDS011;70517;48.192;16.278;2023-06-14T09:59:42;2.10;;;1.70;;
42132;SDS011;70517;48.192;16.278;2023-06-14T10:02:43;2.63;;;1.95;;
42132;SDS011;70517;48.192;16.278;2023-06-14T10:05:47;3.30;;;2.00;;
42132;SDS011;70517;48.192;16.278;2023-06-14T10:08:50;3.70;;;2.13;;
42132;SDS011;70517;48.192;16.278;2023-06-14T10:11:52;2.38;;;1.63;;
42132;SDS011;70517;48.192;16.278;2023-06-14T10:14:52;3.00;;;2.10;;
42132;SDS011;70517;48.192;16.278;2023-06-14T10:17:56;4.72;;;1.88;;
42132;SDS011;70517;48.192;16.278;2023-06-14T10:21:33;5.10;;;2.10;;
42132;SDS011;70517;48.192;16.278;2023-06-14T10:24:35;1.90;;;1.70;;
42132;SDS011;70517;48.192;16.278;2023-06-14T10:27:38;2.00;;;1.63;;
42132;SDS011;70517;48.192;16.278;2023-06-14T10:30:39;1.50;;;1.35;;
42132;SDS011;70517;48.192;16.278;2023-06-14T10:33:49;3.63;;;1.50;;
42132;SDS011;70517;48.192;16.278;2023-06-14T10:37:04;1.80;;;1.70;;
42132;SDS011;70517;48.192;16.278;2023-06-14T10:40:05;1.92;;;1.50;;
42132;SDS011;70517;48.192;16.278;2023-06-14T10:43:21;2.05;;;1.90;;
42132;SDS011;70517;48.192;16.278;2023-06-14T10:46:22;2.10;;;1.80;;
42132;SDS011;70517;48.192;16.278;2023-06-14T10:49:39;2.28;;;1.80;;
42132;SDS011;70517;48.192;16.278;2023-06-14T10:52:42;2.33;;;1.77;;
42132;SDS011;70517;48.192;16.278;2023-06-14T10:55:43;2.67;;;1.67;;
42132;SDS011;70517;48.192;16.278;2023-06-14T10:58:43;3.60;;;1.70;;
42132;SDS011;70517;48.192;16.278;2023-06-14T11:01:52;2.27;;;2.07;;
42132;SDS011;70517;48.192;16.278;2023-06-14T11:04:57;2.05;;;1.65;;
42132;SDS011;70517;48.192;16.278;2023-06-14T11:11:18;2.00;;;1.67;;
42132;SDS011;70517;48.192;16.278;2023-06-14T11:14:21;2.15;;;1.70;;
42132;SDS011;70517;48.192;16.278;2023-06-14T11:17:22;1.70;;;1.60;;
42132;SDS011;70517;48.192;16.278;2023-06-14T11:20:24;1.90;;;1.58;;
42132;SDS011;70517;48.192;16.278;2023-06-14T11:23:24;2.88;;;1.60;;
42132;SDS011;70517;48.192;16.278;2023-06-14T11:26:25;2.00;;;1.80;;
42132;SDS011;70517;48.192;16.278;2023-06-14T11:29:28;1.98;;;1.50;;
42132;SDS011;70517;48.192;16.278;2023-06-14T11:32:30;3.60;;;1.85;;
42132;SDS011;70517;48.192;16.278;2023-06-14T11:35:31;2.40;;;1.45;;
42132;SDS011;70517;48.192;16.278;2023-06-14T11:38:34;1.73;;;1.63;;
42132;SDS011;70517;48.192;16.278;2023-06-14T11:41:42;2.15;;;1.63;;
42132;SDS011;70517;48.192;16.278;2023-06-14T11:44:45;2.25;;;1.63;;
42132;SDS011;70517;48.192;16.278;2023-06-14T11:47:45;2.10;;;1.63;;
42132;SDS011;70517;48.192;16.278;2023-06-14T11:50:49;1.80;;;1.70;;
42132;SDS011;70517;48.192;16.278;2023-06-14T11:53:49;1.80;;;1.70;;
42132;SDS011;70517;48.192;16.278;2023-06-14T11:56:49;1.70;;;1.42;;
42132;SDS011;70517;48.192;16.278;2023-06-14T11:59:51;1.50;;;1.40;;
42132;SDS011;70517;48.192;16.278;2023-06-14T12:02:52;2.53;;;1.35;;
42132;SDS011;70517;48.192;16.278;2023-06-14T12:06:06;1.60;;;1.50;;
42132;SDS011;70517;48.192;16.278;2023-06-14T12:09:07;2.92;;;1.70;;
42132;SDS011;70517;48.192;16.278;2023-06-14T12:12:12;1.67;;;1.45;;
42132;SDS011;70517;48.192;16.278;2023-06-14T12:15:12;3.43;;;1.67;;
42132;SDS011;70517;48.192;16.278;2023-06-14T12:18:13;2.35;;;1.70;;
42132;SDS011;70517;48.192;16.278;2023-06-14T12:21:13;2.20;;;1.80;;
42132;SDS011;70517;48.192;16.278;2023-06-14T12:24:14;2.13;;;1.57;;
42132;SDS011;70517;48.192;16.278;2023-06-14T12:27:15;3.10;;;2.10;;
42132;SDS011;70517;48.192;16.278;2023-06-14T12:30:16;1.73;;;1.60;;
42132;SDS011;70517;48.192;16.278;2023-06-14T12:33:16;3.97;;;2.00;;
42132;SDS011;70517;48.192;16.278;2023-06-14T12:36:16;1.90;;;1.80;;
42132;SDS011;70517;48.192;16.278;2023-06-14T12:39:17;2.33;;;1.80;;
42132;SDS011;70517;48.192;16.278;2023-06-14T12:42:18;2.95;;;1.65;;
42132;SDS011;70517;48.192;16.278;2023-06-14T12:45:18;2.72;;;1.83;;
42132;SDS011;70517;48.192;16.278;2023-06-14T12:48:18;3.03;;;2.00;;
42132;SDS011;70517;48.192;16.278;2023-06-14T12:51:19;2.00;;;1.80;;
42132;SDS011;70517;48.192;16.278;2023-06-14T12:54:19;1.70;;;1.60;;
42132;SDS011;70517;48.192;16.278;2023-06-14T12:57:22;3.92;;;1.80;;
42132;SDS011;70517;48.192;16.278;2023-06-14T13:00:23;2.03;;;1.83;;
42132;SDS011;70517;48.192;16.278;2023-06-14T13:03:23;1.98;;;1.60;;
42132;SDS011;70517;48.192;16.278;2023-06-14T13:06:23;1.97;;;1.50;;
42132;SDS011;70517;48.192;16.278;2023-06-14T13:09:24;2.15;;;1.73;;
42132;SDS011;70517;48.192;16.278;2023-06-14T13:12:24;3.17;;;2.07;;
42132;SDS011;70517;48.192;16.278;2023-06-14T13:15:25;2.40;;;2.20;;
42132;SDS011;70517;48.192;16.278;2023-06-14T13:18:25;3.65;;;1.88;;
42132;SDS011;70517;48.192;16.278;2023-06-14T13:21:26;2.65;;;1.90;;
42132;SDS011;70517;48.192;16.278;2023-06-14T13:24:26;2.45;;;2.00;;
42132;SDS011;70517;48.192;16.278;2023-06-14T13:27:28;2.85;;;2.08;;
42132;SDS011;70517;48.192;16.278;2023-06-14T13:30:28;3.60;;;2.42;;
42132;SDS011;70517;48.192;16.278;2023-06-14T13:33:29;3.83;;;2.08;;
42132;SDS011;70517;48.192;16.278;2023-06-14T13:36:29;4.90;;;2.17;;
42132;SDS011;70517;48.192;16.278;2023-06-14T13:39:30;3.13;;;1.77;;
42132;SDS011;70517;48.192;16.278;2023-06-14T13:42:30;3.20;;;1.65;;
42132;SDS011;70517;48.192;16.278;2023-06-14T13:45:32;2.08;;;1.90;;
42132;SDS011;70517;48.192;16.278;2023-06-14T13:48:32;1.97;;;1.87;;
42132;SDS011;70517;48.192;16.278;2023-06-14T13:51:32;2.30;;;2.10;;
42132;SDS011;70517;48.192;16.278;2023-06-14T13:54:33;2.60;;;2.13;;
42132;SDS011;70517;48.192;16.278;2023-06-14T13:57:33;2.10;;;1.90;;
42132;SDS011;70517;48.192;16.278;2023-06-14T14:00:33;2.17;;;2.00;;
42132;SDS011;70517;48.192;16.278;2023-06-14T14:03:34;2.25;;;1.92;;
42132;SDS011;70517;48.192;16.278;2023-06-14T14:06:34;2.22;;;2.00;;
42132;SDS011;70517;48.192;16.278;2023-06-14T14:09:35;3.10;;;1.90;;
42132;SDS011;70517;48.192;16.278;2023-06-14T14:12:35;2.53;;;1.52;;
42132;SDS011;70517;48.192;16.278;2023-06-14T14:15:38;2.00;;;1.80;;
42132;SDS011;70517;48.192;16.278;2023-06-14T14:18:39;2.23;;;1.67;;
42132;SDS011;70517;48.192;16.278;2023-06-14T14:21:39;2.03;;;1.85;;
42132;SDS011;70517;48.192;16.278;2023-06-14T14:24:39;1.87;;;1.77;;
42132;SDS011;70517;48.192;16.278;2023-06-14T14:27:39;1.80;;;1.57;;
42132;SDS011;70517;48.192;16.278;2023-06-14T14:30:40;2.13;;;1.85;;
42132;SDS011;70517;48.192;16.278;2023-06-14T14:33:40;2.70;;;1.83;;
42132;SDS011;70517;48.192;16.278;2023-06-14T14:36:40;1.80;;;1.70;;
42132;SDS011;70517;48.192;16.278;2023-06-14T14:39:43;1.98;;;1.88;;
42132;SDS011;70517;48.192;16.278;2023-06-14T14:42:44;4.63;;;1.77;;
42132;SDS011;70517;48.192;16.278;2023-06-14T14:45:44;1.70;;;1.60;;
42132;SDS011;70517;48.192;16.278;2023-06-14T14:48:44;3.43;;;1.47;;
42132;SDS011;70517;48.192;16.278;2023-06-14T14:51:46;2.17;;;1.77;;
42132;SDS011;70517;48.192;16.278;2023-06-14T14:54:46;2.57;;;2.00;;
42132;SDS011;70517;48.192;16.278;2023-06-14T14:57:46;2.67;;;1.50;;
42132;SDS011;70517;48.192;16.278;2023-06-14T15:00:47;5.22;;;1.70;;
42132;SDS011;70517;48.192;16.278;2023-06-14T15:03:48;2.23;;;1.57;;
42132;SDS011;70517;48.192;16.278;2023-06-14T15:06:48;2.55;;;1.80;;
42132;SDS011;70517;48.192;16.278;2023-06-14T15:09:48;2.33;;;1.97;;
42132;SDS011;70517;48.192;16.278;2023-06-14T15:12:51;3.53;;;1.80;;
42132;SDS011;70517;48.192;16.278;2023-06-14T15:15:51;3.13;;;1.80;;
42132;SDS011;70517;48.192;16.278;2023-06-14T15:18:51;2.27;;;1.70;;
42132;SDS011;70517;48.192;16.278;2023-06-14T15:21:51;2.00;;;1.77;;
42132;SDS011;70517;48.192;16.278;2023-06-14T15:24:52;3.50;;;1.70;;
42132;SDS011;70517;48.192;16.278;2023-06-14T15:27:52;2.20;;;1.93;;
42132;SDS011;70517;48.192;16.278;2023-06-14T15:30:52;3.13;;;1.73;;
42132;SDS011;70517;48.192;16.278;2023-06-14T15:33:52;2.57;;;1.93;;
42132;SDS011;70517;48.192;16.278;2023-06-14T15:36:53;2.53;;;1.60;;
42132;SDS011;70517;48.192;16.278;2023-06-14T15:39:53;2.40;;;1.90;;
42132;SDS011;70517;48.192;16.278;2023-06-14T15:42:53;1.92;;;1.80;;
42132;SDS011;70517;48.192;16.278;2023-06-14T15:45:53;2.00;;;1.70;;
42132;SDS011;70517;48.192;16.278;2023-06-14T15:48:54;1.70;;;1.60;;
42132;SDS011;70517;48.192;16.278;2023-06-14T15:51:54;1.83;;;1.67;;
42132;SDS011;70517;48.192;16.278;2023-06-14T15:54:55;3.20;;;1.98;;
42132;SDS011;70517;48.192;16.278;2023-06-14T15:57:55;2.63;;;1.67;;
42132;SDS011;70517;48.192;16.278;2023-06-14T16:00:55;2.50;;;1.73;;
42132;SDS011;70517;48.192;16.278;2023-06-14T16:03:55;2.67;;;1.80;;
42132;SDS011;70517;48.192;16.278;2023-06-14T16:06:56;9.18;;;4.55;;
42132;SDS011;70517;48.192;16.278;2023-06-14T16:09:56;5.35;;;4.35;;
42132;SDS011;70517;48.192;16.278;2023-06-14T16:12:57;4.10;;;3.33;;
42132;SDS011;70517;48.192;16.278;2023-06-14T16:15:57;2.70;;;2.03;;
42132;SDS011;70517;48.192;16.278;2023-06-14T16:18:58;3.15;;;2.00;;
42132;SDS011;70517;48.192;16.278;2023-06-14T16:21:58;3.53;;;1.80;;
42132;SDS011;70517;48.192;16.278;2023-06-14T16:24:58;2.45;;;1.60;;
42132;SDS011;70517;48.192;16.278;2023-06-14T16:27:58;2.37;;;1.77;;
42132;SDS011;70517;48.192;16.278;2023-06-14T16:30:59;2.80;;;2.20;;
42132;SDS011;70517;48.192;16.278;2023-06-14T16:33:59;3.20;;;1.60;;
42132;SDS011;70517;48.192;16.278;2023-06-14T16:36:59;2.60;;;1.65;;
42132;SDS011;70517;48.192;16.278;2023-06-14T16:39:59;2.40;;;1.95;;
42132;SDS011;70517;48.192;16.278;2023-06-14T16:43:00;3.95;;;2.10;;
42132;SDS011;70517;48.192;16.278;2023-06-14T16:46:00;2.30;;;1.90;;
42132;SDS011;70517;48.192;16.278;2023-06-14T16:49:00;3.40;;;2.00;;
42132;SDS011;70517;48.192;16.278;2023-06-14T16:52:01;3.17;;;2.10;;
42132;SDS011;70517;48.192;16.278;2023-06-14T16:55:01;4.90;;;2.17;;
42132;SDS011;70517;48.192;16.278;2023-06-14T16:58:01;2.80;;;2.23;;
42132;SDS011;70517;48.192;16.278;2023-06-14T17:01:02;3.95;;;2.40;;
42132;SDS011;70517;48.192;16.278;2023-06-14T17:04:02;2.55;;;2.15;;
42132;SDS011;70517;48.192;16.278;2023-06-14T17:07:02;2.63;;;2.10;;
42132;SDS011;70517;48.192;16.278;2023-06-14T17:10:04;3.50;;;2.17;;
42132;SDS011;70517;48.192;16.278;2023-06-14T17:13:04;3.45;;;2.00;;
42132;SDS011;70517;48.192;16.278;2023-06-14T17:16:05;2.77;;;2.20;;
42132;SDS011;70517;48.192;16.278;2023-06-14T17:19:06;2.38;;;2.17;;
42132;SDS011;70517;48.192;16.278;2023-06-14T17:22:06;3.05;;;2.03;;
42132;SDS011;70517;48.192;16.278;2023-06-14T17:25:07;2.63;;;2.00;;
42132;SDS011;70517;48.192;16.278;2023-06-14T17:28:07;2.25;;;2.00;;
42132;SDS011;70517;48.192;16.278;2023-06-14T17:31:07;2.97;;;1.93;;
42132;SDS011;70517;48.192;16.278;2023-06-14T17:34:08;3.55;;;2.00;;
42132;SDS011;70517;48.192;16.278;2023-06-14T17:37:08;2.43;;;2.23;;
42132;SDS011;70517;48.192;16.278;2023-06-14T17:40:08;3.17;;;2.00;;
42132;SDS011;70517;48.192;16.278;2023-06-14T17:43:09;2.45;;;2.22;;
42132;SDS011;70517;48.192;16.278;2023-06-14T17:46:09;3.00;;;1.88;;
42132;SDS011;70517;48.192;16.278;2023-06-14T17:49:10;2.17;;;1.98;;
42132;SDS011;70517;48.192;16.278;2023-06-14T17:52:10;2.70;;;2.15;;
42132;SDS011;70517;48.192;16.278;2023-06-14T17:55:10;1.97;;;1.73;;
42132;SDS011;70517;48.192;16.278;2023-06-14T17:58:10;3.10;;;1.98;;
42132;SDS011;70517;48.192;16.278;2023-06-14T18:01:10;2.13;;;1.90;;
42132;SDS011;70517;48.192;16.278;2023-06-14T18:04:11;3.13;;;1.70;;
42132;SDS011;70517;48.192;16.278;2023-06-14T18:07:11;5.38;;;1.92;;
42132;SDS011;70517;48.192;16.278;2023-06-14T18:10:11;2.63;;;2.07;;
42132;SDS011;70517;48.192;16.278;2023-06-14T18:13:14;2.25;;;2.05;;
42132;SDS011;70517;48.192;16.278;2023-06-14T18:16:14;2.00;;;1.80;;
42132;SDS011;70517;48.192;16.278;2023-06-14T18:19:16;3.78;;;1.95;;
42132;SDS011;70517;48.192;16.278;2023-06-14T18:22:17;2.13;;;1.90;;
42132;SDS011;70517;48.192;16.278;2023-06-14T18:25:17;2.63;;;2.33;;
42132;SDS011;70517;48.192;16.278;2023-06-14T18:28:23;3.20;;;2.33;;
42132;SDS011;70517;48.192;16.278;2023-06-14T18:31:24;2.20;;;2.00;;
42132;SDS011;70517;48.192;16.278;2023-06-14T18:34:24;4.07;;;2.28;;
42132;SDS011;70517;48.192;16.278;2023-06-14T18:37:24;3.00;;;2.23;;
42132;SDS011;70517;48.192;16.278;2023-06-14T18:40:25;2.67;;;2.03;;
42132;SDS011;70517;48.192;16.278;2023-06-14T18:43:25;3.85;;;2.20;;
42132;SDS011;70517;48.192;16.278;2023-06-14T18:46:25;2.87;;;2.30;;
42132;SDS011;70517;48.192;16.278;2023-06-14T18:49:28;3.25;;;2.70;;